createdAt,value
2024-05-09T01:21:18.778Z,9.4
2024-05-09T01:41:21.870Z,9.2
2024-05-09T01:51:23.363Z,9.3
2024-05-09T03:11:34.985Z,8.4
2024-05-09T05:11:53.897Z,9.3
2024-05-09T05:31:57.643Z,10.6
2024-05-09T05:41:59.113Z,11.2
2024-05-09T05:52:00.311Z,11.7
2024-05-09T06:02:01.397Z,12
2024-05-09T06:12:02.722Z,12.2
2024-05-09T06:22:04.299Z,12.7
2024-05-09T06:32:05.591Z,12.8
2024-05-09T06:42:07.036Z,12.8
2024-05-09T06:52:08.366Z,13.2
2024-05-09T08:12:20.281Z,16.9
2024-05-09T08:32:23.242Z,16.9
2024-05-09T08:42:25.208Z,17.7
2024-05-09T08:52:26.504Z,17.9
2024-05-09T09:02:28.361Z,17.8
2024-05-09T09:12:29.327Z,18.8
2024-05-09T09:22:31.174Z,18.9
2024-05-09T09:32:32.546Z,19.4
2024-05-09T09:42:34.258Z,19.7
2024-05-09T09:52:36.103Z,19.7
2024-05-09T10:02:37.937Z,19.8
2024-05-09T10:12:39.273Z,20.4
2024-05-09T10:22:40.504Z,20.7
2024-05-09T10:32:42.488Z,20.3
2024-05-09T10:42:43.615Z,20.1
2024-05-09T10:52:45.124Z,20.1
2024-05-09T11:02:46.300Z,19
2024-05-09T11:12:48.075Z,19
2024-05-09T11:22:49.346Z,18.8
2024-05-09T11:32:50.808Z,19.2
2024-05-09T11:42:53.124Z,19.9
2024-05-09T11:52:53.555Z,20.9
2024-05-09T12:02:55.612Z,21.6
2024-05-09T12:12:56.840Z,21.5
2024-05-09T12:22:58.684Z,22.6
2024-05-09T12:32:59.916Z,22.4
2024-05-09T12:43:01.532Z,22.1
2024-05-09T12:53:03.460Z,22.1
2024-05-09T13:03:04.460Z,20.5
2024-05-09T13:13:06.319Z,19.7
2024-05-09T13:23:07.817Z,19.5
2024-05-09T13:33:08.589Z,21.7
2024-05-09T13:43:10.467Z,20.7
2024-05-09T13:53:12.065Z,20.5
2024-05-09T14:03:13.390Z,21.2
2024-05-09T14:13:14.958Z,21.5
2024-05-09T14:23:16.646Z,21.3
2024-05-09T14:33:18.472Z,20.2
2024-05-09T14:43:20.189Z,19.8
2024-05-09T14:53:21.563Z,19.9
2024-05-09T15:03:23.127Z,20.4
2024-05-09T15:23:26.235Z,20.3
2024-05-09T15:33:28.111Z,20.3
2024-05-09T15:43:29.787Z,20.5
2024-05-09T15:53:31.271Z,20.5
2024-05-09T16:03:33.114Z,20.7
2024-05-09T16:13:34.268Z,20.5
2024-05-09T16:23:35.491Z,20.1
2024-05-09T16:33:36.948Z,19.7
2024-05-09T16:43:38.014Z,19.6
2024-05-09T16:53:39.578Z,19.4
2024-05-09T17:03:40.908Z,19.2
2024-05-09T17:13:42.781Z,19
2024-05-09T17:23:43.900Z,19
2024-05-09T17:33:45.175Z,19
2024-05-09T17:43:46.264Z,18.9
2024-05-09T17:53:47.544Z,19
2024-05-09T18:03:48.896Z,18.4
2024-05-09T18:13:49.743Z,18
2024-05-09T18:23:51.453Z,17.8
2024-05-09T18:33:53.316Z,17.6
2024-05-09T18:43:54.787Z,17.1
2024-05-09T18:53:55.996Z,16.7
2024-05-09T19:03:57.794Z,16.5
2024-05-09T19:14:06.607Z,16
2024-05-09T19:24:07.904Z,15.8
2024-05-09T19:34:09.004Z,15.5
2024-05-09T19:44:10.706Z,15
2024-05-09T19:54:12.155Z,14.8
2024-05-09T20:04:13.495Z,14.4
2024-05-09T20:14:15.366Z,14.1
2024-05-09T20:24:17.183Z,13.8
2024-05-09T20:34:19.106Z,13.6
2024-05-09T20:44:20.990Z,13.3
2024-05-09T21:04:23.648Z,13.1
2024-05-09T21:14:24.558Z,12.9
2024-05-09T21:24:25.786Z,12.8
2024-05-09T21:34:27.262Z,12.6
2024-05-09T21:44:29.146Z,12.6
2024-05-09T21:54:30.895Z,12.5
2024-05-09T22:04:32.612Z,12.6
2024-05-09T22:14:34.339Z,12.4
2024-05-09T22:24:36.405Z,12.3
2024-05-09T22:34:38.300Z,12.3
2024-05-09T22:44:39.417Z,12.2
2024-05-09T22:54:41.027Z,11.9
2024-05-09T23:04:42.207Z,11.8
2024-05-09T23:14:43.922Z,11.5
2024-05-09T23:24:45.590Z,11.2
2024-05-09T23:34:47.277Z,11.3
2024-05-09T23:44:48.746Z,11
2024-05-09T23:54:50.085Z,10.9
